Impacts TAF Board INFO
FOR SITUATIONAL AWARENESS. NOT TO BE USED FOR FLIGHT PLANNING PURPOSES.
IDs:

KHBG - Hattiesburg/Chain Mu, MS, US

Issued at 1324 UTC 25 Feb 2018
Updated at 1326 UTC 25 Feb 2018
Potential Impact None Slight Moderate High
Time1319Z 25/14Z 25/15Z 25/16Z 25/17Z 25/18Z 25/19Z 25/20Z 25/21Z 25/22Z 25/23Z 26/00Z 26/01Z 26/02Z>>
Type OBS PRVL PRVL PRVL PRVL PRVL PRVL PRVL PRVL PRVL PRVL PRVL PRVL PRVL
VIS 10 >6 >6 5 5 6 6 6 6 4 4 4 4 4
CIG 44 40 40 25 25 15 15 15 15 15 15 15 15 15
Cover OVC OVC OVC BKN BKN BKN BKN BKN BKN OVC OVC OVC OVC OVC
FltCat VFR VFR VFR MVFR MVFR MVFR MVFR MVFR MVFR MVFR MVFR MVFR MVFR MVFR
WX -RA -RA -RA -RA BR -RA BR -RA BR -RA BR -RA BR -RA BR SHRA SHRA SHRA SHRA SHRA
WDir 10 340 340 10 10 20 20 20 20 110 110 110 110 110
WSpd 6 6 6 7 7 6 6 6 6 3 3 3 3 3
WGst -- -- -- -- -- -- -- -- -- -- -- -- -- --

Raw TAF
KHBG 251324Z 2513/2612 34006KT P6SM -RA SCT010 OVC040
  FM251600 01007KT 5SM -RA BR BKN025 BKN050
  FM251800 02006KT 6SM -RA BR BKN015 BKN090
  FM252200 11003KT 4SM SHRA BKN015 OVC090
  FM260800 19004KT P6SM OVC050


Raw METAR
KHBG 251319Z AUTO 01006KT 10SM -RA FEW006 SCT010 OVC044 13/13 A3016 RMK AO2 P0000 T01330128
KHBG 251253Z AUTO 02006KT 5SM -RA BR OVC007 14/14 A3015 RMK AO2 SLP208 P0015 T01390139
KHBG 251234Z AUTO 34006KT 10SM -RA BKN007 BKN029 OVC033 14/14 A3014 RMK AO2 P0012 T01390139
KHBG 251230Z AUTO 34005KT 10SM -RA SCT006 OVC033 14/14 A3013 RMK AO2 P0012 T01390139
KHBG 251214Z AUTO 34008KT 5SM RA BR FEW023 OVC030 14/14 A3012 RMK AO2 P0010 T01390139
KHBG 251153Z AUTO 34010G19KT 5SM RA BR SCT016 BKN021 OVC028 14/13 A3010 RMK AO2 PK WND 35028/1135 WSHFT 1130 RAB27 SLP189 P0004 60004 70009 T01440133 10222 20144 51030
KHBG 251150Z AUTO 33011G25KT 8SM RA SCT016 BKN021 OVC026 15/13 A3009 RMK AO2 PK WND 35028/1135 WSHFT 1130 RAB27 P0001
KHBG 251053Z AUTO 20006KT 10SM BKN019 BKN024 OVC110 22/21 A3002 RMK AO2 SLP164 T02220206

METAR Board
Radar Display
Forecast Discussion

FOR SITUATIONAL AWARENESS. NOT TO BE USED FOR FLIGHT PLANNING PURPOSES.